Sneads, FL

5:10 PM CDT on April 19, 2015 (GMT -0500)
Bonifay | | Change Station
CLOSE
Current Station
Airport
Location: Bonifay,
Elevation: 85 ft
Nearby Weather Stations

Elev 85 ft 30.85 °N, 85.60 °W | Updated 12 minutes ago

Partly Cloudy
Partly Cloudy
75 °F
Feels Like 75 °F
N
8
Wind Variable Wind from SSW
Gusts 18 mph

Today
High -- | Low -- °F
--% Chance of Precip.
Yesterday
High -- | Low -- °F
Precip. -- in
6:08 AM 7:10 PM
New Moon, 2% visible
Pressure 29.70 in
Visibility 10.0 miles
Clouds Mostly Cloudy 3500 ft
Dew Point 64 °F
Humidity 69%
Rainfall 0.24 in
Snow Depth Not available.
UV 2 out of 12
Pollen 4.20 out of 12
Air Quality Not available.
Flu Activity Local Activity
METAR K1J0 192158Z AUTO 21007G16KT 10SM BKN035 24/18 A2982 RMK AO2 SLP057 T02390178

More Conditions Fewer Conditions

Pressure 29.70 in
Visibility 10.0 miles
Clouds Mostly Cloudy 3500 ft
Dew Point 64 °F
Humidity 69%
Rainfall 0.24 in
Snow Depth Not available.
UV 2 out of 12
Pollen 4.20 out of 12
Air Quality Not available.
Flu Activity Local Activity
METAR K1J0 192158Z AUTO 21007G16KT 10SM BKN035 24/18 A2982 RMK AO2 SLP057 T02390178

More Conditions Fewer Conditions

10-Day Weather Forecast

Almanac

Astronomy

Apr. 19, 2015 Rise Set
Actual Time
Civil Twilight
Nautical Twilight
Astronomical Twilight
Moon
Length of Visible Light
Length of Day
Tomorrow will be .
, % of the Moon is Illuminated

Today's Extremes

State Highs State Lows

Community

WunderPhotos

Upload Photos

1,815,003 photos uploaded!

WunderBlogs® & News

Nearby

Air Quality

  Air Quality AQ Index Pollutant
Not available.

Snow Depth

Station Depth Elevation

Earthquake Activity

City Distance Mag. Time & Date
Minimum magnitude displayed is 2.5.

Coastal Water Temperatures

Place Temperature

Stations

Nearby Weather Stations

Station Location Temp. Windchill Dew Point Humidity Wind Precip. Elev Updated Type